Classifiche di sempre
Migliori tempi personali validi di team tra tutti gli eventi e le stagioni. Ogni team compare una sola volta per divisione.
Cerca per nome e apri la pagina in cui è classificato questo record di divisione.
138,594 team in classifica
| Pos. | Pos. AG | Team | Nazionalità | Categoria età | TempoMiglior tempo | Distacco |
|---|---|---|---|---|---|---|
| 125226 | #14756 | 희장 임 & 대혁 윤KOR · M 35-39 · AG #14756 | KOR | M 35-39 | 1:35:27 | +47:47 |
| 125227 | #9223 | Nicolas Declerck & Nicolas ItzeFRA · M 16-24 · AG #9223 | FRA | M 16-24 | 1:35:27 | +47:47 |
| 125228 | #45380 | Phong Nguyen & Denys DelgadoUSA · M 30-34 · AG #45380 | USA | M 30-34 | 1:35:27 | +47:47 |
| 125229 | #45381 | Jorge Alvarado & Rodrigo CastañedaMEX · M 30-34 · AG #45381 | MEX | M 30-34 | 1:35:27 | +47:47 |
| 125230 | #45382 | Mohamed Fazli Mohamed Dawood & Muhammad Khairul Anwar KhalilSIN · M 30-34 · AG #45382 | SIN | M 30-34 | 1:35:27 | +47:47 |
| 125231 | #14757 | 宸宗 簡 & 天宇 王TPE · M 35-39 · AG #14757 | TPE | M 35-39 | 1:35:27 | +47:47 |
| 125232 | #45383 | Sonny Yu & Sung Yip Robin LoCHN · M 30-34 · AG #45383 | CHN | M 30-34 | 1:35:27 | +47:47 |
| 125233 | #45384 | Chon Yin Low & Kam Seng LeeMAS · M 30-34 · AG #45384 | MAS | M 30-34 | 1:35:27 | +47:47 |
| 125234 | #16233 | Thanawatr Rajatavarn & Thayuti SukkhongTHA · M 25-29 · AG #16233 | THA | M 25-29 | 1:35:27 | +47:47 |
| 125235 | #17636 | Hyunggyu Cho & Simon SeahM 40-44 · AG #17636 | -- | M 40-44 | 1:35:27 | +47:47 |
| 125236 | #45385 | HAOXUAN LIANG & XIE LICHN · M 30-34 · AG #45385 | CHN | M 30-34 | 1:35:27 | +47:47 |
| 125237 | #3780 | nicolas asselin & smail askarFRA · M 45-49 · AG #3780 | FRA | M 45-49 | 1:35:27 | +47:47 |
| 125238 | #2627 | Jérémie Descamps & Sebastien BoutillierFRA · M 50-54 · AG #2627 | FRA | M 50-54 | 1:35:28 | +47:48 |
| 125239 | #17638 | Vivek Sankaralingam & Gabby LacayCAN · M 40-44 · AG #17638 | CAN | M 40-44 | 1:35:28 | +47:48 |
| 125240 | -- | Kevin Shu & Gabriel AlloyM MU29 | -- | M MU29 | 1:35:28 | +47:48 |
| 125241 | #2628 | Thomas Stroud & Matthew TysonGBR · M 50-54 · AG #2628 | GBR | M 50-54 | 1:35:28 | +47:48 |
| 125242 | -- | Harry Ingledew & James CleaverGBR · M MU29 | GBR | M MU29 | 1:35:28 | +47:48 |
| 125243 | #45386 | Enrique Gabriel Bernal Pérez & Francisco Antonio Segura RodriguezESP · M 30-34 · AG #45386 | ESP | M 30-34 | 1:35:28 | +47:48 |
| 125244 | #17637 | Michał Buksinski & Adam WrońskiPOL · M 40-44 · AG #17637 | POL | M 40-44 | 1:35:28 | +47:48 |
| 125245 | #45387 | Carlo Rivera Sojo & Arturo López ArvizuMEX · M 30-34 · AG #45387 | MEX | M 30-34 | 1:35:28 | +47:48 |
| 125246 | #14758 | 秉祐 謝 & 濬承 張TPE · M 35-39 · AG #14758 | TPE | M 35-39 | 1:35:28 | +47:48 |
| 125247 | #17639 | Christopher Easdon & Dave QueenGBR · M 40-44 · AG #17639 | GBR | M 40-44 | 1:35:28 | +47:48 |
| 125248 | #45388 | 康 夏 & 骏宜 王CHN · M 30-34 · AG #45388 | CHN | M 30-34 | 1:35:28 | +47:48 |
| 125249 | #45389 | Mathieu Fraisse & Christopher Saint-MartinFRA · M 30-34 · AG #45389 | FRA | M 30-34 | 1:35:28 | +47:48 |
| 125250 | #14759 | Justin McClintock & JD McClintockUSA · M 35-39 · AG #14759 | USA | M 35-39 | 1:35:28 | +47:48 |
Pagina 5,010 di 5,544